ADDS METAR Data INFO
IDs: Format: Raw Decoded Include TAF

Data at: 1509 UTC 11 Dec 2017

PAUT 111455Z AUTO 35003KT 10SM OVC017 03/01 A2895 RMK AO2 T00250010
PAUT 111435Z AUTO 36004KT 7SM BKN017 OVC032 03/01 A2894 RMK AO2 T00250012
PAUT 111415Z AUTO 35004KT 10SM SCT021 BKN032 OVC055 02/01 A2894 RMK AO2 T00180006
PAUT 111355Z AUTO 00000KT 7SM BKN023 OVC050 02/01 A2894 RMK AO2 T00210010
PAUT 111335Z AUTO 36007KT 7SM OVC023 02/01 A2893 RMK AO2 T00210010
PAUT 111315Z AUTO 36005KT 7SM SCT023 BKN085 02/01 A2892 RMK AO2 T00190008
PAUT 111255Z AUTO 01004KT 10SM SCT013 02/01 A2892 RMK AO2 T00190006
PAUT 111235Z AUTO 03008KT 10SM BKN013 BKN024 02/01 A2891 RMK AO2 T00210010
PAUT 111215Z AUTO 03008KT 10SM BKN013 BKN018 OVC024 02/01 A2891 RMK AO2 T00200013
PAUT 111155Z AUTO 03008KT 5SM BR SCT010 BKN015 OVC029 02/02 A2891 RMK AO2 P0001 60007 70011 T00230018 10035 20023
PAUT 111135Z AUTO 02008KT 7SM SCT008 BKN022 OVC031 03/02 A2891 RMK AO2 P0001 T00250018
PAUT 111115Z AUTO 4SM RA BKN013 OVC020 03/02 A2890 RMK AO2 T00250017
PAUT 111055Z AUTO 01009G15KT 4SM DZ BKN016 OVC023 03/02 A2890 RMK AO2 P0001 T00260017
PAUT 111035Z AUTO 36007KT 10SM BKN016 BKN021 OVC033 03/02 A2889 RMK AO2 T00300018
PAUT 111015Z AUTO 01007KT 10SM SCT017 BKN023 OVC042 03/02 A2889 RMK AO2 T00310018
PAUT 110955Z AUTO 35012G18KT 10SM BKN015 OVC023 04/02 A2889 RMK AO2 P0001 T00350020
PAUT 110935Z AUTO 36013G20KT 5SM RA OVC015 03/02 A2889 RMK AO2 P0001 T00340020
PAUT 110915Z AUTO 33011G15KT 10SM -DZ BKN018 OVC028 04/02 A2889 RMK AO2 T00350018
PAUT 110855Z AUTO 35010G18KT 7SM RA OVC015 03/02 A2889 RMK AO2 P0002 60004 T00330020 400460026
PAUT 110835Z AUTO 33010KT 7SM DZ OVC015 03/02 A2889 RMK AO2 P0001 T00320020
PAUT 110815Z AUTO 34009KT 5SM RA OVC015 03/02 A2889 RMK AO2 T00320020
PAUT 110755Z AUTO 34011KT 7SM -DZ SCT010 OVC018 03/02 A2890 RMK AO2 P0001 T00300020
PAUT 110735Z AUTO 32016G19KT 7SM -DZ SCT008 BKN011 OVC018 03/02 A2890 RMK AO2 T00300022
PAUT 110715Z AUTO 32019G23KT 7SM -DZ SCT011 BKN015 OVC023 03/02 A2890 RMK AO2 T00260015
PAUT 110655Z AUTO 33012G18KT 7SM -DZ SCT011 BKN015 OVC024 03/01 A2891 RMK AO2 P0001 T00290013
PAUT 110635Z AUTO 35009KT 7SM -DZ OVC015 03/01 A2891 RMK AO2 T00290012
PAUT 110615Z AUTO 01009KT 10SM -DZ OVC013 03/02 A2892 RMK AO2 T00300015
PAUT 110555Z AUTO 34012KT 7SM DZ OVC015 03/02 A2892 RMK AO2 P0002 60004 T00300015 10043 20026
PAUT 110535Z AUTO 35012G16KT 10SM -DZ OVC015 03/02 A2892 RMK AO2 P0001 T00310016
PAUT 110515Z AUTO 36009KT 10SM -DZ OVC013 03/02 A2894 RMK AO2 P0001 T00270015
PAUT 110455Z AUTO 36013G19KT 7SM DZ OVC015 03/02 A2894 RMK AO2 P0002 T00270015
PAUT 110435Z AUTO 36018KT 7SM DZ BKN013 OVC019 03/02 A2894 RMK AO2 P0002 T00300018
PAUT 110415Z AUTO 36016G21KT 4SM DZ BKN015 OVC019 03/02 A2894 RMK AO2 P0001 T00320020
PAUT 110355Z AUTO 35012G21KT 7SM -DZ BKN015 BKN023 OVC055 04/02 A2895 RMK AO2 T00350019
PAUT 110335Z AUTO 35015KT 10SM SCT017 BKN025 OVC075 04/02 A2895 RMK AO2 T00360020
PAUT 110315Z AUTO 36015KT 7SM BKN019 OVC026 04/02 A2896 RMK AO2 T00350020
PAUT 110255Z AUTO 35014G23KT 10SM SCT017 BKN023 OVC100 04/02 A2896 RMK AO2 T00390021
PAUT 110235Z AUTO 36013G18KT 10SM BKN019 BKN070 OVC095 04/02 A2897 RMK AO2 T00370020
PAUT 110215Z AUTO 35013KT 10SM BKN019 BKN070 OVC095 04/02 A2897 RMK AO2 T00370020
PAUT 110155Z AUTO 36016G19KT 10SM SCT016 BKN023 OVC095 04/02 A2898 RMK AO2 T00370020
PAUT 110135Z AUTO 36016KT 5SM BR BKN014 OVC021 04/02 A2899 RMK AO2 T00350022
PAUT 110115Z AUTO 01014KT 5SM BR BKN016 OVC023 04/02 A2899 RMK AO2 T00360022
PAUT 110055Z AUTO 36014G19KT 10SM BKN016 OVC022 04/02 A2900 RMK AO2 T00400022
PAUT 110035Z AUTO 01007KT 5SM BR BKN016 OVC022 04/02 A2902 RMK AO2 T00380022
PAUT 110015Z AUTO 35011KT 10SM BKN019 OVC025 04/02 A2903 RMK AO2 T00420020
PAUT 102355Z AUTO 36010KT 10SM OVC022 04/02 A2904 RMK AO2 T00420020 10046 20035
PAUT 102335Z AUTO 35014KT 10SM BKN016 OVC026 04/02 A2904 RMK AO2 T00400022
PAUT 102315Z AUTO 36012KT 5SM BR BKN014 OVC023 04/03 A2906 RMK AO2 T00390025
PAUT 102255Z AUTO 35011KT 7SM OVC020 04/02 A2907 RMK AO2 T00440024
PAUT 102235Z AUTO 01010KT 10SM OVC022 05/02 A2908 RMK AO2 T00460024
PAUT 102215Z AUTO 01010KT 10SM BKN018 OVC023 05/03 A2909 RMK AO2 T00450025
PAUT 102155Z AUTO 01008KT 10SM BKN018 BKN039 OVC090 05/03 A2910 RMK AO2 T00450026
PAUT 102135Z AUTO 01009KT 10SM SCT016 SCT050 OVC100 04/03 A2910 RMK AO2 T00410026
PAUT 102115Z AUTO 01010KT 10SM OVC110 04/03 A2912 RMK AO2 T00400027
PAUT 102055Z AUTO 03009KT 10SM SCT018 SCT024 OVC110 04/03 A2913 RMK AO2 T00400028
PAUT 102035Z AUTO 03010G18KT 10SM BKN018 OVC026 04/03 A2914 RMK AO2 T00410030
PAUT 102015Z AUTO 02008KT 10SM SCT018 BKN026 OVC060 04/03 A2914 RMK AO2 T00400026
PAUT 101955Z AUTO 02006KT 10SM BKN018 BKN024 OVC032 04/03 A2915 RMK AO2 T00390027
PAUT 101935Z AUTO 01005KT 10SM BKN018 BKN029 OVC035 04/03 A2916 RMK AO2 T00360025
PAUT 101915Z AUTO 02007KT 10SM OVC018 04/03 A2916 RMK AO2 T00370026
PAUT 101855Z AUTO 02006KT 10SM BKN018 BKN028 OVC065 04/03 A2917 RMK AO2 T00360026
PAUT 101835Z AUTO 02006KT 10SM SCT014 SCT046 OVC065 04/03 A2917 RMK AO2 T00370028
PAUT 101815Z AUTO 02009KT 10SM SCT014 BKN049 OVC065 04/03 A2917 RMK AO2 T00380028
PAUT 101755Z AUTO 02005KT 10SM BKN012 BKN022 OVC049 04/03 A2917 RMK AO2 T00370028 10045 20027
PAUT 101735Z AUTO 32003KT 10SM SCT010 BKN014 OVC042 04/03 A2918 RMK AO2 T00400029
PAUT 101715Z AUTO 35004KT 10SM BKN010 BKN013 OVC024 04/03 A2919 RMK AO2 T00420030
PAUT 101655Z AUTO 01005KT 7SM BKN013 OVC020 04/03 A2919 RMK AO2 T00430030
PAUT 101635Z AUTO 02008KT 7SM SCT013 OVC022 04/03 A2919 RMK AO2 T00400025
PAUT 101615Z AUTO 34003KT 10SM SCT021 OVC027 04/03 A2920 RMK AO2 T00370025
PAUT 101555Z AUTO 00000KT 10SM BKN016 OVC027 04/03 A2920 RMK AO2 T00350025
PAUT 101535Z AUTO 01005KT 10SM BKN016 OVC023 04/03 A2920 RMK AO2 T00350026
PAUT 101515Z AUTO 05004KT 10SM SCT015 OVC023 03/02 A2920 RMK AO2 T00310024
PAUT 101455Z AUTO 05004KT 10SM BKN019 OVC025 03/03 A2921 RMK AO2 T00300025
PAUT 101435Z AUTO 00000KT 10SM SCT011 OVC022 04/03 A2922 RMK AO2 T00350027
PAUT 101415Z AUTO 00000KT 10SM SCT011 OVC020 04/03 A2922 RMK AO2 T00350029
PAUT 101355Z AUTO 00000KT 10SM SCT011 OVC022 03/03 A2923 RMK AO2 T00310026
PAUT 101335Z AUTO 18004KT 10SM SCT009 OVC025 03/02 A2924 RMK AO2 T00300024
PAUT 101315Z AUTO 12004KT 10SM SCT009 BKN015 OVC023 04/03 A2925 RMK AO2 T00360030
PAUT 101255Z AUTO 17004KT 10SM SCT015 OVC026 04/03 A2925 RMK AO2 T00350030
PAUT 101235Z AUTO 00000KT 10SM SCT015 BKN021 OVC080 04/04 A2925 RMK AO2 T00400035
PAUT 101215Z AUTO 00000KT 5SM BR SCT017 OVC023 04/04 A2926 RMK AO2 T00410037
PAUT 101155Z AUTO 00000KT 7SM SCT008 SCT013 OVC023 04/04 A2927 RMK AO2 70022 T00400036 10047 20040
PAUT 101135Z AUTO 34003KT 7SM SCT008 BKN014 OVC021 04/04 A2928 RMK AO2 T00430038
PAUT 101115Z AUTO 02003KT 7SM OVC008 04/04 A2928 RMK AO2 T00400035
PAUT 101055Z AUTO 00000KT 7SM OVC008 04/04 A2929 RMK AO2 T00420035
PAUT 101035Z AUTO 02004KT 7SM OVC010 05/04 A2930 RMK AO2 T00450035
PAUT 101015Z AUTO 36004KT 7SM OVC010 05/03 A2930 RMK AO2 T00450033
PAUT 100955Z AUTO 35010KT 10SM OVC012 05/03 A2931 RMK AO2 T00460032
PAUT 100935Z AUTO 36006KT 10SM OVC014 05/03 A2932 RMK AO2 T00460030
PAUT 100915Z AUTO 36006KT 10SM SCT010 OVC016 04/03 A2932 RMK AO2 T00430030
PAUT 100855Z AUTO 36007KT 10SM SCT010 OVC014 05/03 A2932 RMK AO2 T00460030 400620027
PAUT 100835Z AUTO 03003KT 10SM OVC012 05/03 A2932 RMK AO2 T00460030
PAUT 100815Z AUTO 00000KT 10SM OVC012 05/03 A2932 RMK AO2 T00460030
PAUT 100755Z AUTO 28008KT 10SM OVC012 05/03 A2932 RMK AO2 T00460030
PAUT 100735Z AUTO 27005KT 10SM OVC014 05/03 A2933 RMK AO2 T00460031
PAUT 100715Z AUTO 31006KT 10SM OVC014 05/03 A2933 RMK AO2 T00450030
PAUT 100655Z AUTO 33008KT 10SM OVC012 05/03 A2933 RMK AO2 T00450031
PAUT 100635Z AUTO 33004KT 10SM OVC014 05/03 A2934 RMK AO2 T00460031
PAUT 100615Z AUTO 34006KT 10SM OVC016 05/03 A2934 RMK AO2 T00460032
PAUT 100555Z AUTO 36009KT 10SM OVC016 05/03 A2934 RMK AO2 T00470032 10062 20040
PAUT 100535Z AUTO 35010KT 10SM OVC018 05/04 A2934 RMK AO2 T00450035
PAUT 100515Z AUTO 36009KT 10SM SCT013 OVC020 04/03 A2934 RMK AO2 T00400032
PAUT 100455Z AUTO 35007KT 7SM BKN013 OVC020 04/03 A2934 RMK AO2 T00420032
PAUT 100435Z AUTO 35009KT 7SM OVC017 05/04 A2934 RMK AO2 T00460035
PAUT 100415Z AUTO 35010KT 7SM BKN017 OVC022 05/03 A2934 RMK AO2 T00460033
PAUT 100355Z AUTO 35011KT 10SM BKN018 BKN022 05/03 A2934 RMK AO2 T00450031
PAUT 100335Z AUTO 01003KT 10SM BKN017 OVC023 04/03 A2935 RMK AO2 T00420030
PAUT 100315Z AUTO 34010KT 10SM SCT016 OVC021 05/03 A2934 RMK AO2 T00490025